sensor_id;sensor_type;location;lat;lon;timestamp;temperature;humidity
25906;DHT22;13713;52.552;13.204;2023-06-26T00:00:05;23.80;70.70
25906;DHT22;13713;52.552;13.204;2023-06-26T00:02:34;23.80;70.70
25906;DHT22;13713;52.552;13.204;2023-06-26T00:05:01;23.80;70.70
25906;DHT22;13713;52.552;13.204;2023-06-26T00:07:31;23.80;70.80
25906;DHT22;13713;52.552;13.204;2023-06-26T00:10:06;23.80;70.70
25906;DHT22;13713;52.552;13.204;2023-06-26T00:12:38;23.80;70.70
25906;DHT22;13713;52.552;13.204;2023-06-26T00:15:13;23.80;70.70
25906;DHT22;13713;52.552;13.204;2023-06-26T00:17:40;23.70;70.70
25906;DHT22;13713;52.552;13.204;2023-06-26T00:20:08;23.80;71.00
25906;DHT22;13713;52.552;13.204;2023-06-26T00:22:43;23.80;70.80
25906;DHT22;13713;52.552;13.204;2023-06-26T00:25:12;23.80;70.80
25906;DHT22;13713;52.552;13.204;2023-06-26T00:27:44;23.80;70.80
25906;DHT22;13713;52.552;13.204;2023-06-26T00:30:12;23.80;70.80
25906;DHT22;13713;52.552;13.204;2023-06-26T00:32:38;23.80;70.80
25906;DHT22;13713;52.552;13.204;2023-06-26T00:35:05;23.80;70.80
25906;DHT22;13713;52.552;13.204;2023-06-26T00:37:32;23.80;70.80
25906;DHT22;13713;52.552;13.204;2023-06-26T00:39:59;23.80;70.80
25906;DHT22;13713;52.552;13.204;2023-06-26T00:42:28;23.80;70.80
25906;DHT22;13713;52.552;13.204;2023-06-26T00:44:59;23.70;70.70
25906;DHT22;13713;52.552;13.204;2023-06-26T00:47:31;23.80;70.80
25906;DHT22;13713;52.552;13.204;2023-06-26T00:50:04;23.70;70.80
25906;DHT22;13713;52.552;13.204;2023-06-26T00:52:37;23.80;70.80
25906;DHT22;13713;52.552;13.204;2023-06-26T00:55:09;23.80;70.80
25906;DHT22;13713;52.552;13.204;2023-06-26T00:57:58;23.80;71.70
25906;DHT22;13713;52.552;13.204;2023-06-26T01:00:28;23.80;70.90
25906;DHT22;13713;52.552;13.204;2023-06-26T01:03:00;23.80;70.90
25906;DHT22;13713;52.552;13.204;2023-06-26T01:05:32;23.70;70.80
25906;DHT22;13713;52.552;13.204;2023-06-26T01:08:07;23.70;70.80
25906;DHT22;13713;52.552;13.204;2023-06-26T01:10:37;23.80;70.90
25906;DHT22;13713;52.552;13.204;2023-06-26T01:13:11;23.80;70.90
25906;DHT22;13713;52.552;13.204;2023-06-26T01:15:46;23.70;70.80
25906;DHT22;13713;52.552;13.204;2023-06-26T01:18:13;23.80;70.90
25906;DHT22;13713;52.552;13.204;2023-06-26T01:20:46;23.70;70.90
25906;DHT22;13713;52.552;13.204;2023-06-26T01:23:56;23.80;71.00
25906;DHT22;13713;52.552;13.204;2023-06-26T01:26:29;23.80;70.90
25906;DHT22;13713;52.552;13.204;2023-06-26T01:29:01;23.80;71.00
25906;DHT22;13713;52.552;13.204;2023-06-26T01:31:32;23.80;70.90
25906;DHT22;13713;52.552;13.204;2023-06-26T01:34:01;23.80;70.90
25906;DHT22;13713;52.552;13.204;2023-06-26T01:36:32;23.70;70.90
25906;DHT22;13713;52.552;13.204;2023-06-26T01:39:06;23.70;70.90
25906;DHT22;13713;52.552;13.204;2023-06-26T01:41:45;23.80;71.00
25906;DHT22;13713;52.552;13.204;2023-06-26T01:44:38;23.70;71.00
25906;DHT22;13713;52.552;13.204;2023-06-26T01:47:06;23.70;71.00
25906;DHT22;13713;52.552;13.204;2023-06-26T01:50:00;23.70;71.00
25906;DHT22;13713;52.552;13.204;2023-06-26T01:53:01;23.70;71.00
25906;DHT22;13713;52.552;13.204;2023-06-26T01:55:38;23.70;71.00
25906;DHT22;13713;52.552;13.204;2023-06-26T01:58:06;23.70;71.00
25906;DHT22;13713;52.552;13.204;2023-06-26T02:00:45;23.70;71.00
25906;DHT22;13713;52.552;13.204;2023-06-26T02:03:15;23.70;71.10
25906;DHT22;13713;52.552;13.204;2023-06-26T02:05:41;23.70;71.00
25906;DHT22;13713;52.552;13.204;2023-06-26T02:08:09;23.70;71.10
25906;DHT22;13713;52.552;13.204;2023-06-26T02:10:35;23.70;71.00
25906;DHT22;13713;52.552;13.204;2023-06-26T02:13:04;23.70;71.10
25906;DHT22;13713;52.552;13.204;2023-06-26T02:15:33;23.70;71.10
25906;DHT22;13713;52.552;13.204;2023-06-26T02:18:00;23.70;71.10
25906;DHT22;13713;52.552;13.204;2023-06-26T02:20:28;23.70;71.10
25906;DHT22;13713;52.552;13.204;2023-06-26T02:23:00;23.70;71.10
25906;DHT22;13713;52.552;13.204;2023-06-26T02:25:29;23.70;71.10
25906;DHT22;13713;52.552;13.204;2023-06-26T02:27:58;23.70;71.10
25906;DHT22;13713;52.552;13.204;2023-06-26T02:30:28;23.70;71.10
25906;DHT22;13713;52.552;13.204;2023-06-26T02:32:59;23.70;71.10
25906;DHT22;13713;52.552;13.204;2023-06-26T02:35:28;23.70;71.10
25906;DHT22;13713;52.552;13.204;2023-06-26T02:37:54;23.70;71.10
25906;DHT22;13713;52.552;13.204;2023-06-26T02:40:24;23.70;71.10
25906;DHT22;13713;52.552;13.204;2023-06-26T02:42:52;23.70;71.10
25906;DHT22;13713;52.552;13.204;2023-06-26T02:45:22;23.70;71.10
25906;DHT22;13713;52.552;13.204;2023-06-26T02:47:54;23.70;71.10
25906;DHT22;13713;52.552;13.204;2023-06-26T02:50:21;23.70;71.10
25906;DHT22;13713;52.552;13.204;2023-06-26T02:53:06;23.70;71.10
25906;DHT22;13713;52.552;13.204;2023-06-26T02:55:37;23.70;71.20
25906;DHT22;13713;52.552;13.204;2023-06-26T02:58:04;23.70;71.20
25906;DHT22;13713;52.552;13.204;2023-06-26T03:00:32;23.70;71.10
25906;DHT22;13713;52.552;13.204;2023-06-26T03:03:02;23.70;71.20
25906;DHT22;13713;52.552;13.204;2023-06-26T03:05:33;23.70;71.20
25906;DHT22;13713;52.552;13.204;2023-06-26T03:08:02;23.70;71.10
25906;DHT22;13713;52.552;13.204;2023-06-26T03:10:28;23.70;71.20
25906;DHT22;13713;52.552;13.204;2023-06-26T03:12:57;23.70;71.20
25906;DHT22;13713;52.552;13.204;2023-06-26T03:15:30;23.70;71.20
25906;DHT22;13713;52.552;13.204;2023-06-26T03:18:02;23.70;71.30
25906;DHT22;13713;52.552;13.204;2023-06-26T03:20:31;23.70;71.20
25906;DHT22;13713;52.552;13.204;2023-06-26T03:22:58;23.70;71.20
25906;DHT22;13713;52.552;13.204;2023-06-26T03:25:25;23.70;71.20
25906;DHT22;13713;52.552;13.204;2023-06-26T03:28:26;23.70;71.20
25906;DHT22;13713;52.552;13.204;2023-06-26T03:30:52;23.70;71.30
25906;DHT22;13713;52.552;13.204;2023-06-26T03:33:39;23.70;71.20
25906;DHT22;13713;52.552;13.204;2023-06-26T03:36:21;23.70;71.30
25906;DHT22;13713;52.552;13.204;2023-06-26T03:39:11;23.70;71.30
25906;DHT22;13713;52.552;13.204;2023-06-26T03:41:38;23.70;71.20
25906;DHT22;13713;52.552;13.204;2023-06-26T03:44:16;23.70;71.30
25906;DHT22;13713;52.552;13.204;2023-06-26T03:46:46;23.70;71.20
25906;DHT22;13713;52.552;13.204;2023-06-26T03:49:20;23.70;71.30
25906;DHT22;13713;52.552;13.204;2023-06-26T03:52:10;23.70;71.30
25906;DHT22;13713;52.552;13.204;2023-06-26T03:54:44;23.70;71.30
25906;DHT22;13713;52.552;13.204;2023-06-26T03:57:11;23.70;71.30
25906;DHT22;13713;52.552;13.204;2023-06-26T03:59:59;23.70;71.30
25906;DHT22;13713;52.552;13.204;2023-06-26T04:02:25;23.70;71.30
25906;DHT22;13713;52.552;13.204;2023-06-26T04:05:00;23.70;71.30
25906;DHT22;13713;52.552;13.204;2023-06-26T04:07:43;23.70;71.30
25906;DHT22;13713;52.552;13.204;2023-06-26T04:10:35;23.70;71.30
25906;DHT22;13713;52.552;13.204;2023-06-26T04:13:04;23.70;71.30
25906;DHT22;13713;52.552;13.204;2023-06-26T04:15:30;23.70;71.30
25906;DHT22;13713;52.552;13.204;2023-06-26T04:17:56;23.70;71.20
25906;DHT22;13713;52.552;13.204;2023-06-26T04:20:21;23.70;71.30
25906;DHT22;13713;52.552;13.204;2023-06-26T04:22:47;23.70;71.30
25906;DHT22;13713;52.552;13.204;2023-06-26T04:25:13;23.70;71.30
25906;DHT22;13713;52.552;13.204;2023-06-26T04:27:39;23.70;71.20
25906;DHT22;13713;52.552;13.204;2023-06-26T04:30:05;23.70;71.30
25906;DHT22;13713;52.552;13.204;2023-06-26T04:32:31;23.70;71.20
25906;DHT22;13713;52.552;13.204;2023-06-26T04:34:57;23.70;71.20
25906;DHT22;13713;52.552;13.204;2023-06-26T04:37:22;23.70;71.20
25906;DHT22;13713;52.552;13.204;2023-06-26T04:39:50;23.70;71.20
25906;DHT22;13713;52.552;13.204;2023-06-26T04:42:16;23.70;71.30
25906;DHT22;13713;52.552;13.204;2023-06-26T04:44:42;23.70;71.20
25906;DHT22;13713;52.552;13.204;2023-06-26T04:47:08;23.70;71.20
25906;DHT22;13713;52.552;13.204;2023-06-26T04:49:34;23.70;71.30
25906;DHT22;13713;52.552;13.204;2023-06-26T04:52:00;23.70;71.20
25906;DHT22;13713;52.552;13.204;2023-06-26T04:54:26;23.70;71.20
25906;DHT22;13713;52.552;13.204;2023-06-26T04:56:53;23.70;71.20
25906;DHT22;13713;52.552;13.204;2023-06-26T04:59:19;23.70;71.20
25906;DHT22;13713;52.552;13.204;2023-06-26T05:01:45;23.70;71.20
25906;DHT22;13713;52.552;13.204;2023-06-26T05:04:14;23.70;72.10
25906;DHT22;13713;52.552;13.204;2023-06-26T05:06:43;23.70;71.20
25906;DHT22;13713;52.552;13.204;2023-06-26T05:09:09;23.70;71.20
25906;DHT22;13713;52.552;13.204;2023-06-26T05:11:36;23.70;71.30
25906;DHT22;13713;52.552;13.204;2023-06-26T05:14:02;23.70;71.30
25906;DHT22;13713;52.552;13.204;2023-06-26T05:16:28;23.70;71.20
25906;DHT22;13713;52.552;13.204;2023-06-26T05:18:53;23.70;71.30
25906;DHT22;13713;52.552;13.204;2023-06-26T05:21:20;23.70;71.30
25906;DHT22;13713;52.552;13.204;2023-06-26T05:23:46;23.70;71.20
25906;DHT22;13713;52.552;13.204;2023-06-26T05:26:13;23.70;71.20
25906;DHT22;13713;52.552;13.204;2023-06-26T05:28:39;23.80;71.30
25906;DHT22;13713;52.552;13.204;2023-06-26T05:31:05;23.80;71.30
25906;DHT22;13713;52.552;13.204;2023-06-26T05:33:31;23.80;71.30
25906;DHT22;13713;52.552;13.204;2023-06-26T05:36:00;23.80;71.30
25906;DHT22;13713;52.552;13.204;2023-06-26T05:38:28;23.80;71.30
25906;DHT22;13713;52.552;13.204;2023-06-26T05:40:54;23.80;71.30
25906;DHT22;13713;52.552;13.204;2023-06-26T05:43:20;23.80;71.30
25906;DHT22;13713;52.552;13.204;2023-06-26T05:45:48;23.90;71.40
25906;DHT22;13713;52.552;13.204;2023-06-26T05:48:14;23.90;71.40
25906;DHT22;13713;52.552;13.204;2023-06-26T05:50:40;23.90;71.40
25906;DHT22;13713;52.552;13.204;2023-06-26T05:53:08;24.00;71.40
25906;DHT22;13713;52.552;13.204;2023-06-26T05:55:34;24.00;71.40
25906;DHT22;13713;52.552;13.204;2023-06-26T05:58:00;24.00;71.30
25906;DHT22;13713;52.552;13.204;2023-06-26T06:00:27;24.10;71.40
25906;DHT22;13713;52.552;13.204;2023-06-26T06:02:53;24.00;71.30
25906;DHT22;13713;52.552;13.204;2023-06-26T06:05:23;24.10;71.30
25906;DHT22;13713;52.552;13.204;2023-06-26T06:07:49;24.10;71.30
25906;DHT22;13713;52.552;13.204;2023-06-26T06:10:15;24.10;71.30
25906;DHT22;13713;52.552;13.204;2023-06-26T06:12:41;24.10;71.30
25906;DHT22;13713;52.552;13.204;2023-06-26T06:15:07;24.10;71.30
25906;DHT22;13713;52.552;13.204;2023-06-26T06:17:33;24.20;71.30
25906;DHT22;13713;52.552;13.204;2023-06-26T06:19:58;24.10;71.30
25906;DHT22;13713;52.552;13.204;2023-06-26T06:22:24;24.20;71.30
25906;DHT22;13713;52.552;13.204;2023-06-26T06:24:50;24.20;71.30
25906;DHT22;13713;52.552;13.204;2023-06-26T06:27:16;24.20;71.20
25906;DHT22;13713;52.552;13.204;2023-06-26T06:29:42;24.20;71.20
25906;DHT22;13713;52.552;13.204;2023-06-26T06:32:08;24.30;71.30
25906;DHT22;13713;52.552;13.204;2023-06-26T06:34:34;24.30;71.30
25906;DHT22;13713;52.552;13.204;2023-06-26T06:36:59;24.30;71.20
25906;DHT22;13713;52.552;13.204;2023-06-26T06:39:25;24.30;71.20
25906;DHT22;13713;52.552;13.204;2023-06-26T06:41:51;24.40;71.20
25906;DHT22;13713;52.552;13.204;2023-06-26T06:44:17;24.40;71.20
25906;DHT22;13713;52.552;13.204;2023-06-26T06:46:44;24.40;71.20
25906;DHT22;13713;52.552;13.204;2023-06-26T06:49:10;24.40;71.30
25906;DHT22;13713;52.552;13.204;2023-06-26T06:51:35;24.40;71.30
25906;DHT22;13713;52.552;13.204;2023-06-26T06:54:02;24.50;71.30
25906;DHT22;13713;52.552;13.204;2023-06-26T06:56:28;24.50;71.40
25906;DHT22;13713;52.552;13.204;2023-06-26T06:58:54;24.50;71.40
25906;DHT22;13713;52.552;13.204;2023-06-26T07:01:20;24.50;71.40
25906;DHT22;13713;52.552;13.204;2023-06-26T07:03:47;24.60;71.40
25906;DHT22;13713;52.552;13.204;2023-06-26T07:06:13;24.60;71.40
25906;DHT22;13713;52.552;13.204;2023-06-26T07:08:39;24.60;71.40
25906;DHT22;13713;52.552;13.204;2023-06-26T07:11:04;24.60;71.30
25906;DHT22;13713;52.552;13.204;2023-06-26T07:13:30;24.60;71.40
25906;DHT22;13713;52.552;13.204;2023-06-26T07:15:56;24.70;71.40
25906;DHT22;13713;52.552;13.204;2023-06-26T07:18:22;24.70;71.40
25906;DHT22;13713;52.552;13.204;2023-06-26T07:20:47;24.70;71.40
25906;DHT22;13713;52.552;13.204;2023-06-26T07:23:13;24.80;72.30
25906;DHT22;13713;52.552;13.204;2023-06-26T07:25:39;24.80;71.40
25906;DHT22;13713;52.552;13.204;2023-06-26T07:28:10;24.80;71.40
25906;DHT22;13713;52.552;13.204;2023-06-26T07:30:36;24.80;71.40
25906;DHT22;13713;52.552;13.204;2023-06-26T07:33:02;24.90;71.70
25906;DHT22;13713;52.552;13.204;2023-06-26T07:35:27;24.90;71.50
25906;DHT22;13713;52.552;13.204;2023-06-26T07:37:53;24.90;71.40
25906;DHT22;13713;52.552;13.204;2023-06-26T07:40:19;24.90;71.40
25906;DHT22;13713;52.552;13.204;2023-06-26T07:42:45;24.90;71.30
25906;DHT22;13713;52.552;13.204;2023-06-26T07:45:11;25.00;71.40
25906;DHT22;13713;52.552;13.204;2023-06-26T07:47:38;25.00;71.30
25906;DHT22;13713;52.552;13.204;2023-06-26T07:50:04;25.00;71.40
25906;DHT22;13713;52.552;13.204;2023-06-26T07:52:30;25.00;71.40
25906;DHT22;13713;52.552;13.204;2023-06-26T07:54:56;25.00;71.30
25906;DHT22;13713;52.552;13.204;2023-06-26T07:57:22;25.00;71.40
25906;DHT22;13713;52.552;13.204;2023-06-26T07:59:49;25.00;71.30
25906;DHT22;13713;52.552;13.204;2023-06-26T08:02:15;25.00;71.30
25906;DHT22;13713;52.552;13.204;2023-06-26T08:04:41;25.00;71.30
25906;DHT22;13713;52.552;13.204;2023-06-26T08:07:07;25.00;71.40
25906;DHT22;13713;52.552;13.204;2023-06-26T08:09:33;25.10;71.40
25906;DHT22;13713;52.552;13.204;2023-06-26T08:11:59;25.10;71.40
25906;DHT22;13713;52.552;13.204;2023-06-26T08:14:25;25.10;71.40
25906;DHT22;13713;52.552;13.204;2023-06-26T08:16:51;25.10;71.40
25906;DHT22;13713;52.552;13.204;2023-06-26T08:19:17;25.20;71.40
25906;DHT22;13713;52.552;13.204;2023-06-26T08:21:43;25.20;71.40
25906;DHT22;13713;52.552;13.204;2023-06-26T08:24:10;25.20;71.40
25906;DHT22;13713;52.552;13.204;2023-06-26T08:26:36;25.20;71.40
25906;DHT22;13713;52.552;13.204;2023-06-26T08:29:03;25.20;71.40
25906;DHT22;13713;52.552;13.204;2023-06-26T08:31:37;25.20;71.40
25906;DHT22;13713;52.552;13.204;2023-06-26T08:34:04;25.20;71.40
25906;DHT22;13713;52.552;13.204;2023-06-26T08:36:30;25.30;71.40
25906;DHT22;13713;52.552;13.204;2023-06-26T08:38:56;25.30;71.40
25906;DHT22;13713;52.552;13.204;2023-06-26T08:41:22;25.30;71.40
25906;DHT22;13713;52.552;13.204;2023-06-26T08:43:48;25.30;71.30
25906;DHT22;13713;52.552;13.204;2023-06-26T08:46:15;25.40;71.40
25906;DHT22;13713;52.552;13.204;2023-06-26T08:48:45;25.30;71.30
25906;DHT22;13713;52.552;13.204;2023-06-26T08:51:16;25.40;71.40
25906;DHT22;13713;52.552;13.204;2023-06-26T08:53:58;25.40;71.20
25906;DHT22;13713;52.552;13.204;2023-06-26T08:56:31;25.40;71.20
25906;DHT22;13713;52.552;13.204;2023-06-26T08:58:57;25.40;71.20
25906;DHT22;13713;52.552;13.204;2023-06-26T09:01:24;25.50;71.20
25906;DHT22;13713;52.552;13.204;2023-06-26T09:03:51;25.50;71.20
25906;DHT22;13713;52.552;13.204;2023-06-26T09:06:17;25.50;71.20
25906;DHT22;13713;52.552;13.204;2023-06-26T09:08:44;25.60;71.10
25906;DHT22;13713;52.552;13.204;2023-06-26T09:11:10;25.60;71.10
25906;DHT22;13713;52.552;13.204;2023-06-26T09:13:35;25.60;71.00
25906;DHT22;13713;52.552;13.204;2023-06-26T09:16:08;25.60;70.90
25906;DHT22;13713;52.552;13.204;2023-06-26T09:18:34;25.60;70.90
25906;DHT22;13713;52.552;13.204;2023-06-26T09:21:00;25.60;70.80
25906;DHT22;13713;52.552;13.204;2023-06-26T09:23:31;25.70;71.70
25906;DHT22;13713;52.552;13.204;2023-06-26T09:25:56;25.70;70.80
25906;DHT22;13713;52.552;13.204;2023-06-26T09:28:22;25.70;70.80
25906;DHT22;13713;52.552;13.204;2023-06-26T09:30:48;25.70;70.70
25906;DHT22;13713;52.552;13.204;2023-06-26T09:33:17;25.80;70.70
25906;DHT22;13713;52.552;13.204;2023-06-26T09:35:44;25.80;70.70
25906;DHT22;13713;52.552;13.204;2023-06-26T09:38:11;25.80;70.70
25906;DHT22;13713;52.552;13.204;2023-06-26T09:40:37;25.80;70.60
25906;DHT22;13713;52.552;13.204;2023-06-26T09:43:09;25.80;70.60
25906;DHT22;13713;52.552;13.204;2023-06-26T09:45:35;25.80;71.40
25906;DHT22;13713;52.552;13.204;2023-06-26T09:48:05;25.80;70.60
25906;DHT22;13713;52.552;13.204;2023-06-26T09:50:32;25.80;70.50
25906;DHT22;13713;52.552;13.204;2023-06-26T09:53:08;25.90;70.60
25906;DHT22;13713;52.552;13.204;2023-06-26T09:55:35;25.90;70.50
25906;DHT22;13713;52.552;13.204;2023-06-26T09:58:03;25.90;70.50
25906;DHT22;13713;52.552;13.204;2023-06-26T10:00:30;25.90;70.50
25906;DHT22;13713;52.552;13.204;2023-06-26T10:02:56;25.90;70.40
25906;DHT22;13713;52.552;13.204;2023-06-26T10:05:22;25.90;70.30
25906;DHT22;13713;52.552;13.204;2023-06-26T10:07:48;26.00;70.40
25906;DHT22;13713;52.552;13.204;2023-06-26T10:10:16;26.00;70.40
25906;DHT22;13713;52.552;13.204;2023-06-26T10:12:45;26.00;70.20
25906;DHT22;13713;52.552;13.204;2023-06-26T10:15:13;26.00;70.20
25906;DHT22;13713;52.552;13.204;2023-06-26T10:17:43;26.00;70.20
25906;DHT22;13713;52.552;13.204;2023-06-26T10:20:10;26.00;70.20
25906;DHT22;13713;52.552;13.204;2023-06-26T10:22:43;26.00;70.20
25906;DHT22;13713;52.552;13.204;2023-06-26T10:25:10;26.00;70.20
25906;DHT22;13713;52.552;13.204;2023-06-26T10:27:43;26.00;70.20
25906;DHT22;13713;52.552;13.204;2023-06-26T10:30:16;26.10;71.00
25906;DHT22;13713;52.552;13.204;2023-06-26T10:32:43;26.10;70.20
25906;DHT22;13713;52.552;13.204;2023-06-26T10:35:11;26.10;70.20
25906;DHT22;13713;52.552;13.204;2023-06-26T10:37:45;26.10;70.20
25906;DHT22;13713;52.552;13.204;2023-06-26T10:40:22;26.10;70.20
25906;DHT22;13713;52.552;13.204;2023-06-26T10:42:48;26.10;70.20
25906;DHT22;13713;52.552;13.204;2023-06-26T10:45:16;26.10;70.20
25906;DHT22;13713;52.552;13.204;2023-06-26T10:47:46;26.10;70.10
25906;DHT22;13713;52.552;13.204;2023-06-26T10:53:11;26.10;70.10
25906;DHT22;13713;52.552;13.204;2023-06-26T10:55:40;26.20;70.10
25906;DHT22;13713;52.552;13.204;2023-06-26T10:58:28;26.20;70.00
25906;DHT22;13713;52.552;13.204;2023-06-26T11:01:19;26.20;69.90
25906;DHT22;13713;52.552;13.204;2023-06-26T11:06:27;26.20;69.90
25906;DHT22;13713;52.552;13.204;2023-06-26T11:09:00;26.20;69.80
25906;DHT22;13713;52.552;13.204;2023-06-26T11:14:22;26.20;69.70
25906;DHT22;13713;52.552;13.204;2023-06-26T11:16:49;26.20;70.50
25906;DHT22;13713;52.552;13.204;2023-06-26T11:19:17;26.20;69.60
25906;DHT22;13713;52.552;13.204;2023-06-26T11:21:43;26.30;69.50
25906;DHT22;13713;52.552;13.204;2023-06-26T11:24:10;26.30;69.50
25906;DHT22;13713;52.552;13.204;2023-06-26T11:26:40;26.30;69.30
25906;DHT22;13713;52.552;13.204;2023-06-26T11:29:07;26.30;69.40
25906;DHT22;13713;52.552;13.204;2023-06-26T11:31:38;26.30;69.30
25906;DHT22;13713;52.552;13.204;2023-06-26T11:34:05;26.30;69.30
25906;DHT22;13713;52.552;13.204;2023-06-26T11:36:33;26.30;69.30
25906;DHT22;13713;52.552;13.204;2023-06-26T11:39:03;26.30;69.20
25906;DHT22;13713;52.552;13.204;2023-06-26T11:41:32;26.40;69.30
25906;DHT22;13713;52.552;13.204;2023-06-26T11:44:06;26.40;69.30
25906;DHT22;13713;52.552;13.204;2023-06-26T11:46:34;26.40;69.00
25906;DHT22;13713;52.552;13.204;2023-06-26T11:49:02;26.40;68.90
25906;DHT22;13713;52.552;13.204;2023-06-26T11:51:28;26.40;68.80
25906;DHT22;13713;52.552;13.204;2023-06-26T11:53:54;26.40;68.70
25906;DHT22;13713;52.552;13.204;2023-06-26T11:56:20;26.40;68.70
25906;DHT22;13713;52.552;13.204;2023-06-26T11:59:02;26.40;68.60
25906;DHT22;13713;52.552;13.204;2023-06-26T12:01:44;26.40;68.50
25906;DHT22;13713;52.552;13.204;2023-06-26T12:04:11;26.50;68.60
25906;DHT22;13713;52.552;13.204;2023-06-26T12:06:39;26.50;68.50
25906;DHT22;13713;52.552;13.204;2023-06-26T12:09:07;26.50;68.40
25906;DHT22;13713;52.552;13.204;2023-06-26T12:11:35;26.50;68.30
25906;DHT22;13713;52.552;13.204;2023-06-26T12:14:02;26.50;68.40
25906;DHT22;13713;52.552;13.204;2023-06-26T12:16:30;26.50;68.20
25906;DHT22;13713;52.552;13.204;2023-06-26T12:19:07;26.50;68.10
25906;DHT22;13713;52.552;13.204;2023-06-26T12:24:13;26.50;68.10
25906;DHT22;13713;52.552;13.204;2023-06-26T12:26:42;26.50;68.10
25906;DHT22;13713;52.552;13.204;2023-06-26T12:29:14;26.50;67.90
25906;DHT22;13713;52.552;13.204;2023-06-26T12:31:42;26.50;67.90
25906;DHT22;13713;52.552;13.204;2023-06-26T12:34:09;26.50;67.90
25906;DHT22;13713;52.552;13.204;2023-06-26T12:36:44;26.60;67.90
25906;DHT22;13713;52.552;13.204;2023-06-26T12:39:11;26.60;67.90
25906;DHT22;13713;52.552;13.204;2023-06-26T12:42:01;26.60;67.60
25906;DHT22;13713;52.552;13.204;2023-06-26T12:44:28;26.60;67.60
25906;DHT22;13713;52.552;13.204;2023-06-26T12:47:01;26.70;66.10
25906;DHT22;13713;52.552;13.204;2023-06-26T12:49:38;26.80;65.30
25906;DHT22;13713;52.552;13.204;2023-06-26T12:52:12;27.00;65.60
25906;DHT22;13713;52.552;13.204;2023-06-26T12:54:40;27.10;65.20
25906;DHT22;13713;52.552;13.204;2023-06-26T12:57:07;27.20;65.30
25906;DHT22;13713;52.552;13.204;2023-06-26T12:59:35;27.20;64.20
25906;DHT22;13713;52.552;13.204;2023-06-26T13:02:01;27.20;64.10
25906;DHT22;13713;52.552;13.204;2023-06-26T13:04:27;27.30;63.90
25906;DHT22;13713;52.552;13.204;2023-06-26T13:06:53;27.30;64.20
25906;DHT22;13713;52.552;13.204;2023-06-26T13:09:21;27.30;64.10
25906;DHT22;13713;52.552;13.204;2023-06-26T13:11:47;27.40;64.80
25906;DHT22;13713;52.552;13.204;2023-06-26T13:14:13;27.40;64.40
25906;DHT22;13713;52.552;13.204;2023-06-26T13:16:39;27.50;64.00
25906;DHT22;13713;52.552;13.204;2023-06-26T13:19:05;27.50;63.20
25906;DHT22;13713;52.552;13.204;2023-06-26T13:21:31;27.50;63.60
25906;DHT22;13713;52.552;13.204;2023-06-26T13:23:57;27.50;63.50
25906;DHT22;13713;52.552;13.204;2023-06-26T13:26:24;27.50;63.10
25906;DHT22;13713;52.552;13.204;2023-06-26T13:28:50;27.60;63.20
25906;DHT22;13713;52.552;13.204;2023-06-26T13:31:16;27.50;62.40
25906;DHT22;13713;52.552;13.204;2023-06-26T13:33:42;27.50;63.20
25906;DHT22;13713;52.552;13.204;2023-06-26T13:36:08;27.50;63.00
25906;DHT22;13713;52.552;13.204;2023-06-26T13:38:34;27.60;63.20
25906;DHT22;13713;52.552;13.204;2023-06-26T13:41:01;27.50;63.20
25906;DHT22;13713;52.552;13.204;2023-06-26T13:43:27;27.50;63.10
25906;DHT22;13713;52.552;13.204;2023-06-26T13:45:54;27.50;63.80
25906;DHT22;13713;52.552;13.204;2023-06-26T13:48:19;27.60;64.60
25906;DHT22;13713;52.552;13.204;2023-06-26T13:50:46;27.60;63.80
25906;DHT22;13713;52.552;13.204;2023-06-26T13:53:13;27.60;64.00
25906;DHT22;13713;52.552;13.204;2023-06-26T13:55:40;27.60;63.60
25906;DHT22;13713;52.552;13.204;2023-06-26T13:58:09;27.60;63.60
25906;DHT22;13713;52.552;13.204;2023-06-26T14:00:36;27.60;64.20
25906;DHT22;13713;52.552;13.204;2023-06-26T14:03:02;27.60;62.80
25906;DHT22;13713;52.552;13.204;2023-06-26T14:05:34;27.40;63.60
25906;DHT22;13713;52.552;13.204;2023-06-26T14:08:03;27.30;65.60
25906;DHT22;13713;52.552;13.204;2023-06-26T14:10:29;27.20;67.50
25906;DHT22;13713;52.552;13.204;2023-06-26T14:12:55;27.00;68.60
25906;DHT22;13713;52.552;13.204;2023-06-26T14:15:21;26.90;70.80
25906;DHT22;13713;52.552;13.204;2023-06-26T14:17:47;26.90;71.70
25906;DHT22;13713;52.552;13.204;2023-06-26T14:20:16;26.80;73.70
25906;DHT22;13713;52.552;13.204;2023-06-26T14:22:43;26.70;76.40
25906;DHT22;13713;52.552;13.204;2023-06-26T14:25:13;26.60;76.70
25906;DHT22;13713;52.552;13.204;2023-06-26T14:27:39;26.50;77.40
25906;DHT22;13713;52.552;13.204;2023-06-26T14:30:06;26.40;79.40
25906;DHT22;13713;52.552;13.204;2023-06-26T14:32:33;26.40;81.30
25906;DHT22;13713;52.552;13.204;2023-06-26T14:34:58;26.40;80.50
25906;DHT22;13713;52.552;13.204;2023-06-26T14:37:25;26.30;81.70
25906;DHT22;13713;52.552;13.204;2023-06-26T14:39:51;26.20;83.50
25906;DHT22;13713;52.552;13.204;2023-06-26T14:42:17;26.10;82.50
25906;DHT22;13713;52.552;13.204;2023-06-26T14:44:43;26.10;83.40
25906;DHT22;13713;52.552;13.204;2023-06-26T14:47:08;26.00;84.30
25906;DHT22;13713;52.552;13.204;2023-06-26T14:49:34;26.00;83.80
25906;DHT22;13713;52.552;13.204;2023-06-26T14:52:00;25.90;85.20
25906;DHT22;13713;52.552;13.204;2023-06-26T14:54:26;26.00;86.20
25906;DHT22;13713;52.552;13.204;2023-06-26T14:56:52;26.00;85.00
25906;DHT22;13713;52.552;13.204;2023-06-26T14:59:17;26.00;85.00
25906;DHT22;13713;52.552;13.204;2023-06-26T15:01:43;26.00;83.90
25906;DHT22;13713;52.552;13.204;2023-06-26T15:04:08;26.00;83.40
25906;DHT22;13713;52.552;13.204;2023-06-26T15:06:35;26.10;83.00
25906;DHT22;13713;52.552;13.204;2023-06-26T15:09:01;26.10;82.90
25906;DHT22;13713;52.552;13.204;2023-06-26T15:11:28;26.10;82.90
25906;DHT22;13713;52.552;13.204;2023-06-26T15:13:55;26.10;83.00
25906;DHT22;13713;52.552;13.204;2023-06-26T15:16:21;26.10;81.90
25906;DHT22;13713;52.552;13.204;2023-06-26T15:18:47;26.10;81.50
25906;DHT22;13713;52.552;13.204;2023-06-26T15:21:13;26.10;81.40
25906;DHT22;13713;52.552;13.204;2023-06-26T15:23:39;26.10;81.60
25906;DHT22;13713;52.552;13.204;2023-06-26T15:26:04;26.20;81.40
25906;DHT22;13713;52.552;13.204;2023-06-26T15:28:30;26.20;81.30
25906;DHT22;13713;52.552;13.204;2023-06-26T15:30:56;26.20;81.30
25906;DHT22;13713;52.552;13.204;2023-06-26T15:33:21;26.20;81.30
25906;DHT22;13713;52.552;13.204;2023-06-26T15:35:47;26.20;81.30